Time;durP1;ratioP1;P1;durP2;ratioP2;P2;SDS_P1;SDS_P2;PMS_P1;PMS_P2;Temp;Humidity;BMP_temperature;BMP_pressure;BME280_temperature;BME280_humidity;BME280_pressure;Samples;Min_cycle;Max_cycle;Signal;HPM_P1;HPM_P2
2022/10/26 00:02:48;;;;;;;6.28;4.12;;;;;;;11.90;100.00;100533.94;2919111;80;21384;-85
2022/10/26 00:06:49;;;;;;;4.97;3.55;;;;;;;11.88;100.00;100537.22;2928324;80;20975;-85
2022/10/26 00:10:51;;;;;;;4.60;3.70;;;;;;;11.89;100.00;100543.77;2938134;79;20999;-85
2022/10/26 00:14:52;;;;;;;6.70;4.08;;;;;;;11.90;100.00;100548.59;2915778;79;21542;-85
2022/10/26 00:18:53;;;;;;;7.40;3.30;;;;;;;11.88;100.00;100549.21;2925433;79;21019;-85
2022/10/26 00:22:55;;;;;;;4.20;2.90;;;;;;;11.86;100.00;100551.99;2943563;80;21539;-85
2022/10/26 00:26:56;;;;;;;6.67;3.77;;;;;;;11.81;100.00;100548.41;2935053;80;21034;-85
2022/10/26 00:31:09;;;;;;;4.62;3.35;;;;;;;11.79;100.00;100551.69;2914877;80;21015;-85
2022/10/26 00:35:10;;;;;;;4.00;2.98;;;;;;;11.80;100.00;100544.52;2910273;80;21479;-85
2022/10/26 00:39:12;;;;;;;3.58;2.90;;;;;;;11.83;100.00;100541.59;2889842;81;21051;-85
2022/10/26 00:43:22;;;;;;;3.17;2.87;;;;;;;11.82;100.00;100545.23;2842954;79;21523;-85
2022/10/26 00:47:32;;;;;;;4.90;2.90;;;;;;;11.83;100.00;100550.45;2880669;81;21005;-85
2022/10/26 00:51:38;;;;;;;3.05;2.22;;;;;;;11.82;100.00;100543.42;2843459;82;21078;-85
2022/10/26 00:55:44;;;;;;;8.43;3.35;;;;;;;11.81;100.00;100548.87;2832121;81;20995;-85
2022/10/26 00:59:46;;;;;;;6.03;3.52;;;;;;;11.73;100.00;100546.02;2863293;81;21035;-85
2022/10/26 01:03:48;;;;;;;2.95;2.60;;;;;;;11.71;100.00;100543.46;2838753;82;21097;-85
2022/10/26 01:07:51;;;;;;;6.40;3.70;;;;;;;11.71;100.00;100536.80;2906130;80;20992;-85
2022/10/26 01:11:52;;;;;;;3.33;2.90;;;;;;;11.70;100.00;100533.78;2934274;79;20976;-85
2022/10/26 01:16:11;;;;;;;4.45;2.75;;;;;;;11.68;100.00;100531.73;2943467;78;21041;-85
2022/10/26 01:20:45;;;;;;;3.55;2.50;;;;;;;11.63;100.00;100532.09;2914236;80;21075;-86
2022/10/26 01:24:58;;;;;;;5.33;2.33;;;;;;;11.60;100.00;100529.69;2907753;80;21168;-86
2022/10/26 01:29:41;;;;;;;2.75;2.55;;;;;;;11.59;100.00;100529.33;2933516;79;20994;-86
2022/10/26 01:33:48;;;;;;;5.55;2.60;;;;;;;11.60;100.00;100524.87;2926381;79;21708;-86
2022/10/26 01:37:55;;;;;;;3.85;2.92;;;;;;;11.62;100.00;100529.58;2932214;80;21077;-86
2022/10/26 01:42:00;;;;;;;6.75;3.95;;;;;;;11.64;100.00;100531.13;2911471;79;21518;-86
2022/10/26 01:46:05;;;;;;;8.80;3.80;;;;;;;11.66;100.00;100529.68;2922538;79;21019;-86
2022/10/26 01:50:08;;;;;;;4.00;2.70;;;;;;;11.54;100.00;100511.05;2914908;80;21570;-86
2022/10/26 01:54:10;;;;;;;6.00;3.37;;;;;;;11.56;100.00;100529.09;2914472;80;21003;-86
2022/10/26 01:58:56;;;;;;;9.10;3.15;;;;;;;11.47;100.00;100537.85;2927501;79;20968;-86
2022/10/26 02:03:29;;;;;;;4.47;3.05;;;;;;;11.48;100.00;100530.22;2917801;79;21004;-86
2022/10/26 02:07:39;;;;;;;4.92;3.50;;;;;;;11.51;100.00;100528.63;2934384;79;21118;-86
2022/10/26 02:11:47;;;;;;;7.12;3.52;;;;;;;11.49;100.00;100532.37;2864393;82;21640;-87
2022/10/26 02:16:24;;;;;;;6.28;4.17;;;;;;;11.40;100.00;100522.02;2880984;81;21073;-86
2022/10/26 02:20:31;;;;;;;5.05;2.83;;;;;;;11.37;100.00;100527.57;2881663;80;21039;-86
2022/10/26 02:24:35;;;;;;;3.25;2.95;;;;;;;11.35;100.00;100531.71;2846264;81;20980;-86
2022/10/26 02:28:44;;;;;;;9.08;4.12;;;;;;;11.36;100.00;100535.20;2864082;80;20999;-86
2022/10/26 02:32:50;;;;;;;3.83;3.47;;;;;;;11.37;100.00;100536.89;2880022;82;20960;-86
2022/10/26 02:36:55;;;;;;;4.33;3.45;;;;;;;11.35;100.00;100529.05;2872151;81;21037;-86
2022/10/26 02:40:59;;;;;;;7.28;3.75;;;;;;;11.39;100.00;100527.82;2880237;81;21004;-86
2022/10/26 02:45:06;;;;;;;7.40;3.85;;;;;;;11.38;100.00;100539.91;2845631;82;21004;-86
2022/10/26 02:49:07;;;;;;;5.60;3.05;;;;;;;11.38;100.00;100541.25;2825143;80;21074;-86
2022/10/26 02:53:23;;;;;;;7.08;3.45;;;;;;;11.26;100.00;100539.96;2941207;79;21113;-86
2022/10/26 02:57:38;;;;;;;4.62;3.10;;;;;;;11.19;100.00;100537.41;2915958;79;21000;-86
2022/10/26 03:01:40;;;;;;;10.32;4.20;;;;;;;11.06;99.55;100539.39;2901697;80;21086;-86
2022/10/26 03:05:42;;;;;;;4.20;3.80;;;;;;;10.94;100.00;100538.05;2899833;80;20987;-87
2022/10/26 03:09:44;;;;;;;3.70;2.95;;;;;;;10.84;100.00;100537.11;2872474;80;20988;-86
2022/10/26 03:13:45;;;;;;;3.58;3.27;;;;;;;10.63;100.00;100537.83;2879344;80;21058;-86
2022/10/26 03:17:47;;;;;;;6.30;3.35;;;;;;;10.45;100.00;100535.27;2887856;80;21005;-85
2022/10/26 03:21:48;;;;;;;4.67;3.17;;;;;;;10.40;100.00;100535.59;2870332;80;21522;-84
2022/10/26 03:25:49;;;;;;;6.83;4.67;;;;;;;10.45;100.00;100537.94;2886100;80;21003;-85
2022/10/26 03:29:51;;;;;;;5.15;3.98;;;;;;;10.48;100.00;100541.18;2894229;81;21562;-84
2022/10/26 03:33:52;;;;;;;4.12;3.37;;;;;;;10.54;100.00;100545.18;2891064;81;21015;-85
2022/10/26 03:37:53;;;;;;;5.12;3.25;;;;;;;10.58;100.00;100547.96;2894726;81;21016;-84
2022/10/26 03:41:55;;;;;;;6.70;4.05;;;;;;;10.62;100.00;100549.91;2902276;80;20988;-84
2022/10/26 03:45:56;;;;;;;3.72;2.87;;;;;;;10.64;100.00;100551.96;2894584;80;21538;-85
2022/10/26 03:49:58;;;;;;;6.35;3.87;;;;;;;10.66;100.00;100554.88;2880168;80;21023;-84
2022/10/26 03:53:59;;;;;;;5.45;3.72;;;;;;;10.69;100.00;100551.97;2868891;80;21526;-84
2022/10/26 03:58:00;;;;;;;5.30;3.77;;;;;;;10.69;100.00;100547.12;2888375;80;21023;-85
2022/10/26 04:02:02;;;;;;;5.40;3.70;;;;;;;10.70;100.00;100555.00;2904530;80;21030;-84
2022/10/26 04:06:04;;;;;;;8.25;3.75;;;;;;;10.69;100.00;100551.97;2907638;80;21023;-85
2022/10/26 04:10:06;;;;;;;8.45;4.20;;;;;;;10.65;100.00;100550.53;2900770;80;21031;-85
2022/10/26 04:14:07;;;;;;;7.25;3.85;;;;;;;10.64;100.00;100551.50;2900194;81;21047;-85
2022/10/26 04:18:12;;;;;;;4.75;3.87;;;;;;;10.63;100.00;100551.13;2917250;80;21055;-84
2022/10/26 04:22:14;;;;;;;4.45;3.35;;;;;;;10.67;100.00;100549.92;2910399;80;21102;-85
2022/10/26 04:26:15;;;;;;;4.65;4.20;;;;;;;10.70;100.00;100562.12;2829820;81;21141;-85
2022/10/26 04:30:16;;;;;;;4.78;3.60;;;;;;;10.69;100.00;100562.62;2892033;80;21150;-85
2022/10/26 04:34:18;;;;;;;6.72;4.33;;;;;;;10.53;100.00;100566.96;2914328;80;21102;-85
2022/10/26 04:38:19;;;;;;;7.53;5.65;;;;;;;10.06;100.00;100572.25;2910118;80;21720;-85
2022/10/26 04:42:20;;;;;;;5.67;3.90;;;;;;;9.75;100.00;100570.54;2907513;80;20995;-84
2022/10/26 04:46:21;;;;;;;8.70;4.25;;;;;;;9.71;100.00;100571.73;2889945;81;20980;-85
2022/10/26 04:50:23;;;;;;;7.30;4.42;;;;;;;9.55;100.00;100571.52;2855071;82;21511;-84
2022/10/26 04:54:24;;;;;;;6.45;4.42;;;;;;;9.35;100.00;100567.68;2866399;79;21039;-85
2022/10/26 04:58:26;;;;;;;7.58;5.22;;;;;;;9.35;100.00;100567.68;2893772;80;21062;-85
2022/10/26 05:02:28;;;;;;;8.63;5.75;;;;;;;9.44;100.00;100571.48;2875051;81;21098;-85
2022/10/26 05:06:29;;;;;;;8.15;6.53;;;;;;;9.42;100.00;100569.38;2894720;81;21613;-85
2022/10/26 05:10:31;;;;;;;11.15;8.55;;;;;;;9.47;100.00;100567.73;2897646;80;21110;-85
2022/10/26 05:14:32;;;;;;;17.45;8.55;;;;;;;9.63;100.00;100568.77;2891767;81;21078;-85
2022/10/26 05:18:33;;;;;;;10.18;7.30;;;;;;;9.67;100.00;100574.25;2905562;81;20976;-85
2022/10/26 05:22:34;;;;;;;15.80;11.40;;;;;;;9.60;100.00;100572.98;2874347;81;21043;-84
2022/10/26 05:26:36;;;;;;;14.47;10.78;;;;;;;9.39;100.00;100568.28;2848630;81;21522;-85
2022/10/26 05:30:38;;;;;;;13.58;9.60;;;;;;;9.31;100.00;100566.18;2861029;80;21019;-85
2022/10/26 05:34:40;;;;;;;44.00;30.45;;;;;;;9.18;100.00;100580.82;2880548;80;21668;-84
2022/10/26 05:38:41;;;;;;;20.60;13.55;;;;;;;9.02;100.00;100581.07;2895456;80;21128;-84
2022/10/26 05:42:43;;;;;;;17.48;11.35;;;;;;;8.97;100.00;100579.23;2896165;81;21141;-84
2022/10/26 05:46:46;;;;;;;10.75;7.78;;;;;;;8.95;100.00;100585.13;2898818;80;21034;-84
2022/10/26 05:50:47;;;;;;;7.70;6.55;;;;;;;8.97;100.00;100589.84;2893143;80;21035;-84
2022/10/26 05:54:49;;;;;;;11.18;6.85;;;;;;;9.11;100.00;100595.00;2861561;80;21035;-84
2022/10/26 05:58:51;;;;;;;22.80;7.35;;;;;;;9.24;100.00;100596.80;2879170;81;21059;-84
2022/10/26 06:03:17;;;;;;;6.12;5.53;;;;;;;9.50;100.00;100597.58;2912905;79;21055;-85
2022/10/26 06:07:20;;;;;;;13.38;7.17;;;;;;;9.79;100.00;100595.08;2932363;80;21688;-85
2022/10/26 06:11:22;;;;;;;7.62;5.58;;;;;;;10.04;100.00;100594.58;2881145;80;21015;-85
2022/10/26 06:20:39;;;;;;;7.55;5.37;;;;;;;10.42;100.00;100598.38;2819908;81;21082;-85
2022/10/26 06:25:04;;;;;;;6.05;5.45;;;;;;;10.61;100.00;100599.63;2817842;82;21033;-85
2022/10/26 06:29:47;;;;;;;6.33;4.90;;;;;;;10.77;100.00;100607.72;2716023;85;21067;-85
2022/10/26 06:33:48;;;;;;;7.20;5.12;;;;;;;10.93;100.00;100603.40;2736829;84;21154;-85
2022/10/26 06:37:52;;;;;;;5.87;5.12;;;;;;;11.15;100.00;100603.86;2710618;85;21557;-85
2022/10/26 06:41:55;;;;;;;6.83;4.20;;;;;;;11.31;100.00;100607.98;2734165;86;21198;-85
2022/10/26 06:46:27;;;;;;;8.30;6.03;;;;;;;11.42;100.00;100603.98;2759364;84;21615;-85
2022/10/26 06:50:51;;;;;;;8.50;7.22;;;;;;;11.49;100.00;100606.50;2724338;83;21054;-85
2022/10/26 06:54:54;;;;;;;11.57;5.40;;;;;;;11.54;100.00;100622.95;2767550;82;21033;-85
2022/10/26 06:59:01;;;;;;;6.42;5.83;;;;;;;11.63;100.00;100610.70;2689408;86;21523;-85
2022/10/26 07:03:02;;;;;;;9.05;5.40;;;;;;;11.68;100.00;100604.50;2804776;82;21031;-85
2022/10/26 07:07:03;;;;;;;7.33;5.05;;;;;;;11.79;100.00;100604.98;2787250;83;21094;-85
2022/10/26 07:11:05;;;;;;;7.47;5.80;;;;;;;11.89;100.00;100609.55;2818553;82;21048;-85
2022/10/26 07:15:07;;;;;;;7.90;6.03;;;;;;;12.03;100.00;100613.77;2833027;82;21067;-85
2022/10/26 07:19:09;;;;;;;11.78;6.30;;;;;;;12.17;100.00;100615.27;2837355;81;21087;-85
2022/10/26 07:23:10;;;;;;;10.63;6.28;;;;;;;12.32;100.00;100620.66;2847621;81;20991;-85
2022/10/26 07:27:11;;;;;;;9.70;7.25;;;;;;;12.49;100.00;100621.06;2778437;81;21578;-84
2022/10/26 07:31:12;;;;;;;9.48;6.20;;;;;;;12.64;100.00;100626.91;2834418;82;21024;-85
2022/10/26 07:35:14;;;;;;;10.28;6.12;;;;;;;12.76;100.00;100625.01;2853806;81;21026;-85
2022/10/26 07:39:15;;;;;;;11.93;7.03;;;;;;;12.91;100.00;100626.36;2897183;80;21039;-84
2022/10/26 07:43:16;;;;;;;6.90;5.97;;;;;;;12.88;100.00;100625.80;2855227;81;21042;-85
2022/10/26 07:47:18;;;;;;;11.28;6.47;;;;;;;12.98;100.00;100622.67;2837974;82;21091;-85
2022/10/26 07:51:19;;;;;;;6.78;6.08;;;;;;;12.98;100.00;100625.34;2858144;80;21037;-85
2022/10/26 07:55:20;;;;;;;11.93;6.65;;;;;;;13.01;100.00;100633.09;2811167;82;20995;-85
2022/10/26 07:59:22;;;;;;;9.68;6.47;;;;;;;13.21;100.00;100635.84;2844648;81;21028;-85
2022/10/26 08:03:23;;;;;;;12.37;8.08;;;;;;;13.27;100.00;100638.83;2831086;81;20999;-85
2022/10/26 08:07:25;;;;;;;10.08;6.70;;;;;;;13.53;100.00;100630.86;2819328;81;21003;-85
2022/10/26 08:11:46;;;;;;;8.35;6.33;;;;;;;13.76;100.00;100627.47;2889284;78;21067;-84
2022/10/26 08:15:48;;;;;;;11.65;7.50;;;;;;;14.08;100.00;100633.55;2895708;79;21003;-85
2022/10/26 08:19:49;;;;;;;10.10;7.35;;;;;;;14.45;100.00;100622.61;2877367;80;21558;-85
2022/10/26 08:23:51;;;;;;;12.15;6.12;;;;;;;14.75;100.00;100627.45;2921158;78;21018;-85
2022/10/26 08:27:53;;;;;;;8.05;5.90;;;;;;;15.01;100.00;100626.80;2916165;78;20999;-86
2022/10/26 08:31:55;;;;;;;6.85;5.45;;;;;;;15.27;100.00;100628.33;2917206;79;21011;-85
2022/10/26 08:36:03;;;;;;;9.58;6.37;;;;;;;15.52;100.00;100634.80;2881290;79;21006;-85
2022/10/26 08:40:06;;;;;;;6.37;5.42;;;;;;;15.64;100.00;100631.92;2928004;78;21578;-85
2022/10/26 08:44:28;;;;;;;10.75;5.58;;;;;;;15.62;97.50;100635.26;2917557;79;21024;-85
2022/10/26 08:48:39;;;;;;;8.58;5.87;;;;;;;15.52;99.23;100634.80;2935577;78;20981;-85
2022/10/26 08:52:57;;;;;;;8.03;6.45;;;;;;;15.71;100.00;100634.34;2928707;79;21063;-85
2022/10/26 08:57:02;;;;;;;8.28;7.37;;;;;;;15.91;100.00;100631.55;2945600;79;21016;-85
2022/10/26 09:01:04;;;;;;;8.70;7.65;;;;;;;16.09;99.64;100628.89;2928251;79;21102;-85
2022/10/26 09:05:38;;;;;;;12.47;7.45;;;;;;;16.24;97.76;100630.53;2917488;79;21102;-85
2022/10/26 09:09:56;;;;;;;10.15;5.90;;;;;;;16.36;97.98;100627.95;2912738;79;21065;-85
2022/10/26 09:14:12;;;;;;;10.30;7.33;;;;;;;16.50;96.37;100621.66;2893267;79;21525;-84
2022/10/26 09:18:40;;;;;;;8.75;6.60;;;;;;;16.62;94.66;100626.31;2904732;79;21049;-85
2022/10/26 09:23:07;;;;;;;8.70;6.25;;;;;;;16.63;92.83;100635.53;2901014;79;21065;-85
2022/10/26 09:27:19;;;;;;;8.70;6.92;;;;;;;16.74;94.20;100638.45;2916562;78;21020;-85
2022/10/26 09:31:22;;;;;;;8.40;7.25;;;;;;;16.86;94.20;100641.72;2894887;79;21033;-85
2022/10/26 09:35:48;;;;;;;11.10;7.37;;;;;;;16.91;92.87;100638.08;2914191;78;21026;-85
2022/10/26 09:40:13;;;;;;;8.68;7.10;;;;;;;17.03;91.91;100643.20;2880511;81;21552;-85
2022/10/26 09:44:29;;;;;;;8.23;6.72;;;;;;;17.18;92.03;100648.32;2871444;79;21022;-85
2022/10/26 09:48:47;;;;;;;8.83;6.17;;;;;;;17.33;90.16;100647.20;2849279;80;21046;-84
2022/10/26 09:52:48;;;;;;;10.25;6.45;;;;;;;17.31;90.69;100645.19;2862602;80;21008;-85
2022/10/26 09:56:56;;;;;;;9.30;6.28;;;;;;;17.30;89.02;100644.02;2886219;79;21406;-85
2022/10/26 10:00:58;;;;;;;10.63;7.00;;;;;;;17.33;91.87;100642.34;2884311;80;21497;-85
2022/10/26 10:05:00;;;;;;;12.45;6.85;;;;;;;17.35;90.08;100649.75;2886822;79;21066;-85
2022/10/26 10:09:22;;;;;;;7.92;5.92;;;;;;;17.45;92.41;100644.23;2856156;79;21045;-85
2022/10/26 10:13:27;;;;;;;7.20;5.75;;;;;;;17.55;92.42;100639.06;2848748;80;21020;-85
2022/10/26 10:17:29;;;;;;;8.37;4.83;;;;;;;17.65;91.42;100642.96;2904360;80;21050;-85
2022/10/26 10:21:42;;;;;;;11.12;7.15;;;;;;;17.79;90.53;100639.30;2889214;79;21382;-85
2022/10/26 10:25:43;;;;;;;6.97;4.83;;;;;;;17.89;90.41;100637.30;2870701;79;21035;-85
2022/10/26 10:29:49;;;;;;;7.67;6.10;;;;;;;18.05;89.54;100632.98;2891815;80;21073;-85
2022/10/26 10:33:51;;;;;;;8.55;5.03;;;;;;;18.15;88.00;100631.48;2875178;79;21080;-85
2022/10/26 10:37:53;;;;;;;6.83;5.30;;;;;;;18.32;86.35;100633.16;2884521;80;20972;-85
2022/10/26 10:41:54;;;;;;;8.28;5.75;;;;;;;18.44;86.36;100632.81;2887507;80;21414;-85
2022/10/26 10:45:57;;;;;;;7.78;5.42;;;;;;;18.30;86.36;100637.03;2844567;81;21011;-85
2022/10/26 10:50:18;;;;;;;7.90;5.40;;;;;;;18.37;86.17;100637.53;2871815;80;21518;-85
2022/10/26 10:54:38;;;;;;;8.30;6.42;;;;;;;18.47;85.72;100644.09;2923289;78;21058;-85
2022/10/26 10:59:06;;;;;;;8.38;6.58;;;;;;;18.49;83.61;100647.98;2907975;80;21010;-85
2022/10/26 11:03:34;;;;;;;9.05;7.28;;;;;;;18.38;86.28;100647.81;2885899;80;21007;-85
2022/10/26 11:07:55;;;;;;;11.35;6.12;;;;;;;18.39;87.35;100639.55;2874714;80;21026;-85
2022/10/26 11:12:08;;;;;;;10.15;6.92;;;;;;;18.39;86.82;100636.03;2907411;79;21063;-85
2022/10/26 11:16:18;;;;;;;7.80;6.87;;;;;;;18.49;85.95;100633.99;2907040;79;20991;-85
2022/10/26 11:20:23;;;;;;;11.22;6.45;;;;;;;18.55;85.67;100635.17;2915143;78;21054;-85
2022/10/26 11:24:48;;;;;;;11.05;6.08;;;;;;;18.58;86.30;100634.83;2850458;80;20999;-85
2022/10/26 11:29:04;;;;;;;9.53;5.70;;;;;;;18.67;85.18;100631.13;2922498;80;21007;-85
2022/10/26 11:33:19;;;;;;;9.15;5.97;;;;;;;18.68;84.06;100638.20;2940469;79;21091;-85
2022/10/26 11:37:52;;;;;;;6.90;4.22;;;;;;;18.72;82.67;100635.16;2891360;79;21016;-85
2022/10/26 11:42:04;;;;;;;6.62;5.33;;;;;;;18.72;80.85;100633.28;2889131;80;21003;-85
2022/10/26 11:46:19;;;;;;;11.10;5.92;;;;;;;18.85;83.78;100628.70;2849747;80;21067;-85
2022/10/26 11:50:25;;;;;;;7.28;5.40;;;;;;;18.84;83.39;100630.58;2848330;81;21040;-85
2022/10/26 11:54:46;;;;;;;6.67;4.85;;;;;;;18.89;82.10;100626.02;2882753;81;21054;-85
2022/10/26 11:58:48;;;;;;;8.98;5.97;;;;;;;18.88;83.41;100624.34;2876319;80;21530;-85
2022/10/26 12:03:03;;;;;;;6.00;5.10;;;;;;;18.79;83.18;100629.41;2889447;80;20999;-85
2022/10/26 12:07:28;;;;;;;6.58;3.85;;;;;;;18.86;81.85;100631.73;2866654;79;21038;-85
2022/10/26 12:11:47;;;;;;;8.83;5.05;;;;;;;18.85;82.62;100634.09;2967909;78;21101;-85
2022/10/26 12:16:11;;;;;;;8.18;4.17;;;;;;;18.84;81.69;100625.68;2913499;78;21022;-85
2022/10/26 12:20:33;;;;;;;3.92;3.08;;;;;;;18.80;80.07;100625.20;2864404;80;21602;-85
2022/10/26 12:24:35;;;;;;;3.65;3.02;;;;;;;18.86;80.39;100626.87;2861918;80;21039;-85
2022/10/26 12:28:40;;;;;;;3.05;2.08;;;;;;;18.95;79.06;100630.72;2894417;79;21055;-85
2022/10/26 12:32:50;;;;;;;4.75;2.95;;;;;;;19.04;79.31;100633.41;2839260;81;21033;-85
2022/10/26 12:37:00;;;;;;;5.35;2.42;;;;;;;19.09;77.93;100632.41;2855712;80;21043;-84
2022/10/26 12:41:18;;;;;;;4.72;2.67;;;;;;;19.11;78.50;100630.37;2879691;81;21516;-85
2022/10/26 12:45:21;;;;;;;5.92;3.00;;;;;;;19.20;76.22;100633.36;2898307;79;21137;-85
2022/10/26 12:50:01;;;;;;;2.67;2.45;;;;;;;19.29;75.54;100634.69;2848396;80;21019;-85
2022/10/26 12:54:08;;;;;;;5.42;2.65;;;;;;;19.35;75.87;100640.72;2866123;79;21556;-85
2022/10/26 12:58:36;;;;;;;2.77;1.67;;;;;;;19.41;76.61;100640.02;2880952;80;21024;-85
2022/10/26 13:03:20;;;;;;;5.40;3.20;;;;;;;19.39;75.64;100632.61;2884967;80;21052;-85
2022/10/26 13:07:24;;;;;;;4.67;2.12;;;;;;;19.36;76.46;100628.92;2854729;80;21075;-85
2022/10/26 13:11:30;;;;;;;4.65;2.72;;;;;;;19.40;76.41;100626.20;2962291;77;20993;-85
2022/10/26 13:15:40;;;;;;;3.20;2.08;;;;;;;19.46;76.00;100620.12;2872221;80;21019;-85
2022/10/26 13:19:46;;;;;;;3.62;2.00;;;;;;;19.53;75.70;100618.88;2852624;81;21104;-85
2022/10/26 13:23:56;;;;;;;1.65;1.35;;;;;;;19.61;76.02;100616.65;2872181;80;21029;-85
2022/10/26 13:28:03;;;;;;;8.10;2.50;;;;;;;19.66;75.04;100614.28;2908932;79;21054;-85
2022/10/26 13:32:12;;;;;;;3.60;2.12;;;;;;;19.73;74.90;100612.53;2952660;79;21005;-85
2022/10/26 13:36:28;;;;;;;4.00;2.17;;;;;;;19.75;74.10;100607.80;2950748;78;21015;-85
2022/10/26 13:40:30;;;;;;;3.90;2.10;;;;;;;19.80;73.21;100612.14;2941617;78;20989;-86
2022/10/26 13:44:52;;;;;;;4.25;1.72;;;;;;;19.87;74.05;100615.50;2949579;78;21064;-86
2022/10/26 13:49:02;;;;;;;4.78;1.92;;;;;;;19.94;73.73;100617.83;2913681;79;21027;-85
2022/10/26 13:53:21;;;;;;;2.25;1.45;;;;;;;20.00;73.16;100612.23;2939145;78;21071;-85
2022/10/26 13:57:33;;;;;;;9.80;2.75;;;;;;;19.98;73.18;100615.09;2933955;79;21026;-86
2022/10/26 14:01:36;;;;;;;3.47;2.37;;;;;;;20.02;73.38;100616.41;2904628;79;21024;-86
2022/10/26 14:05:42;;;;;;;15.15;8.80;;;;;;;20.02;73.66;100618.28;2902749;78;21027;-86
2022/10/26 14:09:49;;;;;;;3.27;2.65;;;;;;;20.03;73.65;100618.61;2906630;79;21043;-86
2022/10/26 14:13:51;;;;;;;4.83;2.87;;;;;;;19.91;74.05;100612.77;2890050;80;21008;-86
2022/10/26 14:17:54;;;;;;;4.75;3.98;;;;;;;19.89;74.63;100617.50;2952376;78;21014;-86
2022/10/26 14:21:56;;;;;;;7.75;3.60;;;;;;;19.76;74.39;100615.40;2936956;79;21015;-84
2022/10/26 14:25:58;;;;;;;4.15;2.90;;;;;;;19.73;75.62;100615.23;2922026;79;21002;-84
2022/10/26 14:29:59;;;;;;;4.15;2.72;;;;;;;19.71;73.96;100617.28;2895488;79;21005;-85
2022/10/26 14:34:03;;;;;;;4.58;2.45;;;;;;;19.72;74.66;100615.41;2923358;78;21004;-84
2022/10/26 14:38:25;;;;;;;6.95;3.15;;;;;;;19.73;74.70;100608.48;2917354;78;21368;-84
2022/10/26 14:42:37;;;;;;;3.55;2.22;;;;;;;19.73;75.67;100603.59;2881182;80;21071;-84
2022/10/26 14:46:42;;;;;;;6.05;2.92;;;;;;;19.69;75.75;100605.83;2835390;81;21027;-85
2022/10/26 14:50:45;;;;;;;4.33;2.13;;;;;;;19.63;76.07;100607.86;2864286;80;21020;-85
2022/10/26 14:55:05;;;;;;;3.55;2.47;;;;;;;19.52;76.64;100607.27;2899397;80;21026;-85
2022/10/26 14:59:14;;;;;;;5.40;3.00;;;;;;;19.47;77.42;100603.41;2966008;77;21025;-87
2022/10/26 15:03:16;;;;;;;4.85;2.42;;;;;;;19.39;79.35;100598.89;2889668;80;21070;-86
2022/10/26 15:07:18;;;;;;;9.23;3.75;;;;;;;19.31;80.34;100607.86;2919067;79;20996;-86
2022/10/26 15:11:19;;;;;;;5.50;4.97;;;;;;;19.20;81.59;100602.34;2876771;80;21602;-86
2022/10/26 15:15:46;;;;;;;31.30;18.65;;;;;;;19.09;82.92;100604.92;2833326;81;21149;-86
2022/10/26 15:19:49;;;;;;;40.92;22.77;;;;;;;18.98;83.02;100612.02;2887043;78;21572;-86
2022/10/26 15:23:51;;;;;;;22.75;13.30;;;;;;;18.84;83.41;100614.90;2936104;79;21561;-86
2022/10/26 15:27:53;;;;;;;34.43;23.25;;;;;;;18.74;83.61;100616.44;2893287;80;21043;-86
2022/10/26 15:32:00;;;;;;;17.65;10.72;;;;;;;18.62;84.03;100615.95;2911443;77;21021;-87
2022/10/26 15:36:13;;;;;;;8.35;7.15;;;;;;;18.46;84.35;100616.83;2944011;78;21015;-86
2022/10/26 15:40:17;;;;;;;4.97;4.25;;;;;;;18.27;85.10;100626.08;2920759;78;21024;-87
2022/10/26 15:44:22;;;;;;;7.90;4.87;;;;;;;18.02;85.51;100623.37;2956487;77;21067;-86
2022/10/26 15:48:34;;;;;;;13.13;10.78;;;;;;;17.66;88.26;100632.54;2941634;79;21056;-86
2022/10/26 15:52:34;;;;;;;21.75;12.80;;;;;;;17.36;88.52;100632.09;2906022;79;21019;-86
2022/10/26 15:56:39;;;;;;;21.80;12.90;;;;;;;17.17;88.71;100635.89;2933378;79;20964;-86
2022/10/26 16:00:43;;;;;;;19.32;16.75;;;;;;;17.07;88.29;100640.52;2911674;78;21692;-86
2022/10/26 16:04:45;;;;;;;21.75;16.10;;;;;;;16.89;88.77;100645.95;2930424;79;21065;-86
2022/10/26 16:08:52;;;;;;;13.00;10.28;;;;;;;16.62;89.41;100653.98;2901770;79;21020;-86
2022/10/26 16:12:54;;;;;;;13.78;10.65;;;;;;;16.39;90.95;100661.69;2903165;79;21011;-85
2022/10/26 16:16:56;;;;;;;17.07;8.23;;;;;;;16.04;94.41;100663.41;2933969;78;21040;-86
2022/10/26 16:20:57;;;;;;;12.53;10.05;;;;;;;15.81;94.55;100667.32;2937942;79;20985;-85
2022/10/26 16:29:15;;;;;;;18.55;12.93;;;;;;;15.78;94.99;100682.38;2830113;81;21088;-90
2022/10/26 16:33:17;;;;;;;21.57;13.43;;;;;;;15.74;94.88;100692.20;2802396;82;21598;-85
2022/10/26 16:37:19;;;;;;;31.97;19.75;;;;;;;15.63;95.35;100690.57;2736955;82;21037;-84
2022/10/26 16:41:20;;;;;;;33.75;21.60;;;;;;;15.38;98.42;100694.30;2814688;81;20989;-85
2022/10/26 16:45:22;;;;;;;39.58;27.70;;;;;;;15.16;100.00;100692.33;2823933;81;21051;-85
2022/10/26 16:49:24;;;;;;;32.30;22.82;;;;;;;15.06;100.00;100690.16;2773325;82;21045;-85
2022/10/26 16:53:26;;;;;;;34.92;23.65;;;;;;;14.89;100.00;100680.53;2782963;82;30576;-86
2022/10/26 16:57:27;;;;;;;25.55;17.37;;;;;;;14.88;100.00;100684.72;2767037;81;20989;-87
2022/10/26 17:01:29;;;;;;;47.17;32.13;;;;;;;14.77;100.00;100694.59;2758750;83;21002;-88
2022/10/26 17:05:30;;;;;;;32.35;23.57;;;;;;;14.67;100.00;100698.59;2803827;82;21982;-88
2022/10/26 17:09:32;;;;;;;32.08;28.12;;;;;;;14.60;100.00;100704.17;2821902;81;21018;-89
2022/10/26 17:13:35;;;;;;;19.05;16.00;;;;;;;14.43;100.00;100712.39;2814012;82;21102;-89
2022/10/26 17:17:36;;;;;;;20.30;16.42;;;;;;;14.25;100.00;100714.94;2781934;82;21100;-88
2022/10/26 17:21:37;;;;;;;20.85;13.18;;;;;;;14.22;100.00;100712.55;2754893;82;21042;-89
2022/10/26 17:25:39;;;;;;;21.42;13.83;;;;;;;14.16;100.00;100714.45;2761040;82;21564;-88
2022/10/26 17:29:40;;;;;;;24.30;16.45;;;;;;;14.15;100.00;100714.92;2786257;82;21051;-87
2022/10/26 17:33:43;;;;;;;33.55;18.32;;;;;;;14.10;100.00;100719.34;2745269;83;21010;-88
2022/10/26 17:37:45;;;;;;;29.95;20.37;;;;;;;13.98;100.00;100724.48;2825292;80;21525;-87
2022/10/26 17:41:46;;;;;;;33.00;21.85;;;;;;;13.90;100.00;100727.83;2807592;81;21029;-86
2022/10/26 17:45:47;;;;;;;25.60;19.30;;;;;;;13.95;100.00;100739.44;2791823;82;21144;-86
2022/10/26 17:49:50;;;;;;;31.02;18.32;;;;;;;13.93;100.00;100747.61;2794962;81;21034;-87
2022/10/26 17:53:52;;;;;;;24.40;16.30;;;;;;;13.84;100.00;100757.30;2754761;82;21661;-85
2022/10/26 17:57:53;;;;;;;16.60;13.55;;;;;;;13.89;100.00;100756.89;2792597;81;20995;-88
2022/10/26 18:02:00;;;;;;;27.85;19.17;;;;;;;13.92;100.00;100759.30;2831597;81;21024;-87
2022/10/26 18:06:03;;;;;;;36.48;22.65;;;;;;;13.92;100.00;100767.31;2706860;83;21030;-87
2022/10/26 18:10:05;;;;;;;63.83;35.15;;;;;;;13.89;100.00;100765.39;2785603;81;21054;-86
2022/10/26 18:14:06;;;;;;;56.77;34.20;;;;;;;13.76;100.00;100760.29;2783475;81;21629;-87
2022/10/26 18:18:08;;;;;;;25.35;17.12;;;;;;;13.59;100.00;100765.28;2781219;82;21547;-87
2022/10/26 18:22:10;;;;;;;21.85;13.95;;;;;;;13.36;100.00;100764.56;2792361;81;21072;-87
2022/10/26 18:26:21;;;;;;;24.12;14.95;;;;;;;13.25;100.00;100762.34;2832401;81;21071;-87
2022/10/26 18:30:23;;;;;;;31.15;21.02;;;;;;;13.21;100.00;100770.27;2779763;82;21027;-87
2022/10/26 18:34:26;;;;;;;52.33;34.85;;;;;;;13.14;100.00;100770.41;2787649;81;21041;-87
2022/10/26 18:38:27;;;;;;;47.13;31.23;;;;;;;13.22;100.00;100773.30;2820752;81;21086;-87
2022/10/26 18:42:28;;;;;;;39.50;26.25;;;;;;;13.26;100.00;100775.19;2821451;80;21029;-87
2022/10/26 18:46:36;;;;;;;28.85;22.58;;;;;;;13.30;100.00;100783.33;2836595;81;21390;-86
2022/10/26 18:50:38;;;;;;;28.00;23.15;;;;;;;13.29;100.00;100790.98;2783692;82;21656;-87
2022/10/26 18:54:40;;;;;;;26.25;16.52;;;;;;;13.17;100.00;100783.53;2702150;84;21042;-87
2022/10/26 18:58:44;;;;;;;20.08;14.98;;;;;;;13.20;100.00;100790.42;2795777;81;21085;-86
2022/10/26 19:02:48;;;;;;;18.87;12.73;;;;;;;13.28;100.00;100783.95;2778248;81;21044;-86
2022/10/26 19:06:49;;;;;;;18.27;11.12;;;;;;;13.33;100.00;100784.87;2786186;82;21119;-88